sensor_id;sensor_type;location;lat;lon;timestamp;temperature;humidity
31379;DHT22;61664;48.112;11.662;2023-03-14T00:00:13;14.40;64.40
31379;DHT22;61664;48.112;11.662;2023-03-14T00:02:41;14.40;63.80
31379;DHT22;61664;48.112;11.662;2023-03-14T00:05:08;14.30;64.70
31379;DHT22;61664;48.112;11.662;2023-03-14T00:07:37;14.30;64.90
31379;DHT22;61664;48.112;11.662;2023-03-14T00:10:09;14.30;65.10
31379;DHT22;61664;48.112;11.662;2023-03-14T00:12:37;14.20;65.30
31379;DHT22;61664;48.112;11.662;2023-03-14T00:15:06;14.20;65.60
31379;DHT22;61664;48.112;11.662;2023-03-14T00:17:34;14.30;65.80
31379;DHT22;61664;48.112;11.662;2023-03-14T00:20:03;14.30;65.90
31379;DHT22;61664;48.112;11.662;2023-03-14T00:22:35;14.20;65.90
31379;DHT22;61664;48.112;11.662;2023-03-14T00:25:03;14.20;65.90
31379;DHT22;61664;48.112;11.662;2023-03-14T00:27:31;14.20;66.00
31379;DHT22;61664;48.112;11.662;2023-03-14T00:29:59;14.20;66.20
31379;DHT22;61664;48.112;11.662;2023-03-14T00:32:26;14.20;66.20
31379;DHT22;61664;48.112;11.662;2023-03-14T00:34:53;14.20;66.10
31379;DHT22;61664;48.112;11.662;2023-03-14T00:37:20;14.20;66.10
31379;DHT22;61664;48.112;11.662;2023-03-14T00:39:47;14.20;66.10
31379;DHT22;61664;48.112;11.662;2023-03-14T00:42:14;14.20;66.20
31379;DHT22;61664;48.112;11.662;2023-03-14T00:44:41;14.10;66.20
31379;DHT22;61664;48.112;11.662;2023-03-14T00:47:08;14.20;66.40
31379;DHT22;61664;48.112;11.662;2023-03-14T00:49:35;14.20;66.30
31379;DHT22;61664;48.112;11.662;2023-03-14T00:52:01;14.20;66.50
31379;DHT22;61664;48.112;11.662;2023-03-14T00:54:28;14.20;66.60
31379;DHT22;61664;48.112;11.662;2023-03-14T00:56:55;14.10;66.50
31379;DHT22;61664;48.112;11.662;2023-03-14T00:59:22;14.20;66.50
31379;DHT22;61664;48.112;11.662;2023-03-14T01:01:49;14.10;66.40
31379;DHT22;61664;48.112;11.662;2023-03-14T01:04:16;14.20;66.50
31379;DHT22;61664;48.112;11.662;2023-03-14T01:06:43;14.10;66.40
31379;DHT22;61664;48.112;11.662;2023-03-14T01:09:10;14.20;66.60
31379;DHT22;61664;48.112;11.662;2023-03-14T01:11:37;14.10;66.40
31379;DHT22;61664;48.112;11.662;2023-03-14T01:14:04;14.00;66.30
31379;DHT22;61664;48.112;11.662;2023-03-14T01:16:33;14.00;66.40
31379;DHT22;61664;48.112;11.662;2023-03-14T01:19:02;13.90;66.80
31379;DHT22;61664;48.112;11.662;2023-03-14T01:21:31;13.80;67.40
31379;DHT22;61664;48.112;11.662;2023-03-14T01:24:01;13.80;68.00
31379;DHT22;61664;48.112;11.662;2023-03-14T01:26:31;13.70;68.40
31379;DHT22;61664;48.112;11.662;2023-03-14T01:29:00;13.60;68.70
31379;DHT22;61664;48.112;11.662;2023-03-14T01:31:28;13.50;69.10
31379;DHT22;61664;48.112;11.662;2023-03-14T01:33:55;13.30;69.70
31379;DHT22;61664;48.112;11.662;2023-03-14T01:36:22;13.20;70.40
31379;DHT22;61664;48.112;11.662;2023-03-14T01:38:49;13.10;71.10
31379;DHT22;61664;48.112;11.662;2023-03-14T01:41:21;13.00;71.80
31379;DHT22;61664;48.112;11.662;2023-03-14T01:43:50;12.90;72.60
31379;DHT22;61664;48.112;11.662;2023-03-14T01:46:25;12.80;73.30
31379;DHT22;61664;48.112;11.662;2023-03-14T01:49:17;12.70;74.00
31379;DHT22;61664;48.112;11.662;2023-03-14T01:52:16;12.70;74.20
31379;DHT22;61664;48.112;11.662;2023-03-14T01:54:51;12.70;75.30
31379;DHT22;61664;48.112;11.662;2023-03-14T02:00:21;12.60;76.30
31379;DHT22;61664;48.112;11.662;2023-03-14T02:02:51;12.60;76.40
31379;DHT22;61664;48.112;11.662;2023-03-14T02:05:28;12.60;77.30
31379;DHT22;61664;48.112;11.662;2023-03-14T02:08:00;12.50;77.40
31379;DHT22;61664;48.112;11.662;2023-03-14T02:10:32;12.50;77.80
31379;DHT22;61664;48.112;11.662;2023-03-14T02:13:02;12.50;78.00
31379;DHT22;61664;48.112;11.662;2023-03-14T02:15:31;12.40;78.40
31379;DHT22;61664;48.112;11.662;2023-03-14T02:17:59;12.40;76.60
31379;DHT22;61664;48.112;11.662;2023-03-14T02:21:00;12.40;78.30
31379;DHT22;61664;48.112;11.662;2023-03-14T02:26:36;12.30;76.90
31379;DHT22;61664;48.112;11.662;2023-03-14T02:29:07;12.20;78.20
31379;DHT22;61664;48.112;11.662;2023-03-14T02:31:34;12.10;78.40
31379;DHT22;61664;48.112;11.662;2023-03-14T02:34:01;12.00;78.70
31379;DHT22;61664;48.112;11.662;2023-03-14T02:36:30;12.00;78.80
31379;DHT22;61664;48.112;11.662;2023-03-14T02:39:08;11.80;78.90
31379;DHT22;61664;48.112;11.662;2023-03-14T02:41:41;11.80;78.90
31379;DHT22;61664;48.112;11.662;2023-03-14T02:44:11;11.70;79.70
31379;DHT22;61664;48.112;11.662;2023-03-14T02:46:38;11.70;80.20
31379;DHT22;61664;48.112;11.662;2023-03-14T02:49:09;11.60;80.20
31379;DHT22;61664;48.112;11.662;2023-03-14T02:51:40;11.60;80.50
31379;DHT22;61664;48.112;11.662;2023-03-14T02:54:09;11.50;80.90
31379;DHT22;61664;48.112;11.662;2023-03-14T02:56:36;11.50;81.20
31379;DHT22;61664;48.112;11.662;2023-03-14T02:59:04;11.50;81.30
31379;DHT22;61664;48.112;11.662;2023-03-14T03:01:33;11.50;81.50
31379;DHT22;61664;48.112;11.662;2023-03-14T03:04:00;11.50;81.30
31379;DHT22;61664;48.112;11.662;2023-03-14T03:06:27;11.50;81.50
31379;DHT22;61664;48.112;11.662;2023-03-14T03:08:54;11.50;81.50
31379;DHT22;61664;48.112;11.662;2023-03-14T03:11:21;11.50;81.70
31379;DHT22;61664;48.112;11.662;2023-03-14T03:13:47;11.40;81.70
31379;DHT22;61664;48.112;11.662;2023-03-14T03:16:14;11.40;81.30
31379;DHT22;61664;48.112;11.662;2023-03-14T03:18:41;11.40;81.60
31379;DHT22;61664;48.112;11.662;2023-03-14T03:21:08;11.40;81.80
31379;DHT22;61664;48.112;11.662;2023-03-14T03:23:36;11.30;81.40
31379;DHT22;61664;48.112;11.662;2023-03-14T03:26:03;11.30;80.80
31379;DHT22;61664;48.112;11.662;2023-03-14T03:28:30;11.20;81.10
31379;DHT22;61664;48.112;11.662;2023-03-14T03:30:57;11.20;81.40
31379;DHT22;61664;48.112;11.662;2023-03-14T03:33:23;11.20;81.50
31379;DHT22;61664;48.112;11.662;2023-03-14T03:35:51;11.20;82.00
31379;DHT22;61664;48.112;11.662;2023-03-14T03:38:18;11.20;82.00
31379;DHT22;61664;48.112;11.662;2023-03-14T03:40:46;11.20;81.60
31379;DHT22;61664;48.112;11.662;2023-03-14T03:43:13;11.10;81.80
31379;DHT22;61664;48.112;11.662;2023-03-14T03:45:40;11.20;82.00
31379;DHT22;61664;48.112;11.662;2023-03-14T03:48:07;11.20;81.60
31379;DHT22;61664;48.112;11.662;2023-03-14T03:50:34;11.10;81.40
31379;DHT22;61664;48.112;11.662;2023-03-14T03:53:01;11.10;81.50
31379;DHT22;61664;48.112;11.662;2023-03-14T03:55:28;11.10;81.00
31379;DHT22;61664;48.112;11.662;2023-03-14T03:57:55;11.00;80.90
31379;DHT22;61664;48.112;11.662;2023-03-14T04:00:22;11.00;80.50
31379;DHT22;61664;48.112;11.662;2023-03-14T04:02:49;11.00;80.90
31379;DHT22;61664;48.112;11.662;2023-03-14T04:05:16;11.00;80.70
31379;DHT22;61664;48.112;11.662;2023-03-14T04:07:43;10.90;80.40
31379;DHT22;61664;48.112;11.662;2023-03-14T04:10:10;10.90;80.60
31379;DHT22;61664;48.112;11.662;2023-03-14T04:12:37;10.80;80.60
31379;DHT22;61664;48.112;11.662;2023-03-14T04:15:04;10.90;80.60
31379;DHT22;61664;48.112;11.662;2023-03-14T04:17:31;10.80;80.70
31379;DHT22;61664;48.112;11.662;2023-03-14T04:19:58;10.80;80.60
31379;DHT22;61664;48.112;11.662;2023-03-14T04:22:25;10.80;80.70
31379;DHT22;61664;48.112;11.662;2023-03-14T04:24:52;10.80;80.30
31379;DHT22;61664;48.112;11.662;2023-03-14T04:27:19;10.70;80.50
31379;DHT22;61664;48.112;11.662;2023-03-14T04:29:46;10.70;80.30
31379;DHT22;61664;48.112;11.662;2023-03-14T04:32:13;10.70;80.60
31379;DHT22;61664;48.112;11.662;2023-03-14T04:34:41;10.70;80.70
31379;DHT22;61664;48.112;11.662;2023-03-14T04:37:08;10.70;80.80
31379;DHT22;61664;48.112;11.662;2023-03-14T04:39:35;10.70;80.60
31379;DHT22;61664;48.112;11.662;2023-03-14T04:42:02;10.60;80.50
31379;DHT22;61664;48.112;11.662;2023-03-14T04:44:29;10.70;80.60
31379;DHT22;61664;48.112;11.662;2023-03-14T04:46:56;10.60;80.20
31379;DHT22;61664;48.112;11.662;2023-03-14T04:49:23;10.60;80.60
31379;DHT22;61664;48.112;11.662;2023-03-14T04:51:50;10.60;80.50
31379;DHT22;61664;48.112;11.662;2023-03-14T04:54:17;10.60;80.60
31379;DHT22;61664;48.112;11.662;2023-03-14T04:56:44;10.70;80.70
31379;DHT22;61664;48.112;11.662;2023-03-14T04:59:11;10.60;80.40
31379;DHT22;61664;48.112;11.662;2023-03-14T05:01:38;10.60;80.30
31379;DHT22;61664;48.112;11.662;2023-03-14T05:04:05;10.50;80.30
31379;DHT22;61664;48.112;11.662;2023-03-14T05:06:32;10.60;80.40
31379;DHT22;61664;48.112;11.662;2023-03-14T05:08:59;10.60;80.50
31379;DHT22;61664;48.112;11.662;2023-03-14T05:11:25;10.50;80.60
31379;DHT22;61664;48.112;11.662;2023-03-14T05:13:52;10.60;80.80
31379;DHT22;61664;48.112;11.662;2023-03-14T05:16:19;10.60;80.50
31379;DHT22;61664;48.112;11.662;2023-03-14T05:18:46;10.60;81.00
31379;DHT22;61664;48.112;11.662;2023-03-14T05:21:13;10.60;81.10
31379;DHT22;61664;48.112;11.662;2023-03-14T05:23:40;10.60;81.00
31379;DHT22;61664;48.112;11.662;2023-03-14T05:26:07;10.70;80.80
31379;DHT22;61664;48.112;11.662;2023-03-14T05:28:34;10.70;80.80
31379;DHT22;61664;48.112;11.662;2023-03-14T05:31:01;10.70;81.30
31379;DHT22;61664;48.112;11.662;2023-03-14T05:33:32;10.70;80.80
31379;DHT22;61664;48.112;11.662;2023-03-14T05:35:59;10.70;81.20
31379;DHT22;61664;48.112;11.662;2023-03-14T05:38:26;10.80;80.90
31379;DHT22;61664;48.112;11.662;2023-03-14T05:40:53;10.70;80.90
31379;DHT22;61664;48.112;11.662;2023-03-14T05:43:19;10.60;80.70
31379;DHT22;61664;48.112;11.662;2023-03-14T05:45:46;10.70;80.90
31379;DHT22;61664;48.112;11.662;2023-03-14T05:48:13;10.70;80.40
31379;DHT22;61664;48.112;11.662;2023-03-14T05:50:40;10.70;80.70
31379;DHT22;61664;48.112;11.662;2023-03-14T05:53:07;10.70;80.90
31379;DHT22;61664;48.112;11.662;2023-03-14T05:55:34;10.70;80.90
31379;DHT22;61664;48.112;11.662;2023-03-14T05:58:01;10.70;80.80
31379;DHT22;61664;48.112;11.662;2023-03-14T06:00:28;10.70;80.90
31379;DHT22;61664;48.112;11.662;2023-03-14T06:02:55;10.70;81.20
31379;DHT22;61664;48.112;11.662;2023-03-14T06:05:22;10.70;81.50
31379;DHT22;61664;48.112;11.662;2023-03-14T06:07:48;10.70;81.40
31379;DHT22;61664;48.112;11.662;2023-03-14T06:10:15;10.70;81.00
31379;DHT22;61664;48.112;11.662;2023-03-14T06:12:42;10.80;81.50
31379;DHT22;61664;48.112;11.662;2023-03-14T06:15:10;10.80;81.30
31379;DHT22;61664;48.112;11.662;2023-03-14T06:17:36;10.80;81.40
31379;DHT22;61664;48.112;11.662;2023-03-14T06:20:04;10.80;81.30
31379;DHT22;61664;48.112;11.662;2023-03-14T06:22:31;10.80;81.40
31379;DHT22;61664;48.112;11.662;2023-03-14T06:24:58;10.80;81.50
31379;DHT22;61664;48.112;11.662;2023-03-14T06:27:25;10.90;81.80
31379;DHT22;61664;48.112;11.662;2023-03-14T06:29:52;10.90;81.70
31379;DHT22;61664;48.112;11.662;2023-03-14T06:32:18;10.90;81.70
31379;DHT22;61664;48.112;11.662;2023-03-14T06:34:47;10.90;82.10
31379;DHT22;61664;48.112;11.662;2023-03-14T06:37:14;11.00;82.20
31379;DHT22;61664;48.112;11.662;2023-03-14T06:39:41;11.00;82.50
31379;DHT22;61664;48.112;11.662;2023-03-14T06:42:08;11.10;82.70
31379;DHT22;61664;48.112;11.662;2023-03-14T06:44:35;11.10;82.90
31379;DHT22;61664;48.112;11.662;2023-03-14T06:47:02;11.20;83.20
31379;DHT22;61664;48.112;11.662;2023-03-14T06:49:29;11.20;83.40
31379;DHT22;61664;48.112;11.662;2023-03-14T06:51:56;11.30;83.50
31379;DHT22;61664;48.112;11.662;2023-03-14T06:54:22;11.40;83.70
31379;DHT22;61664;48.112;11.662;2023-03-14T06:56:49;11.40;83.10
31379;DHT22;61664;48.112;11.662;2023-03-14T06:59:16;11.50;83.10
31379;DHT22;61664;48.112;11.662;2023-03-14T07:01:43;11.60;82.70
31379;DHT22;61664;48.112;11.662;2023-03-14T07:04:10;11.50;82.30
31379;DHT22;61664;48.112;11.662;2023-03-14T07:06:37;11.60;82.20
31379;DHT22;61664;48.112;11.662;2023-03-14T07:09:06;11.50;81.90
31379;DHT22;61664;48.112;11.662;2023-03-14T07:11:33;11.50;81.90
31379;DHT22;61664;48.112;11.662;2023-03-14T07:14:00;11.50;82.00
31379;DHT22;61664;48.112;11.662;2023-03-14T07:16:27;11.50;81.90
31379;DHT22;61664;48.112;11.662;2023-03-14T07:18:57;11.50;81.80
31379;DHT22;61664;48.112;11.662;2023-03-14T07:21:25;11.50;81.90
31379;DHT22;61664;48.112;11.662;2023-03-14T07:23:52;11.50;81.20
31379;DHT22;61664;48.112;11.662;2023-03-14T07:26:19;11.50;81.70
31379;DHT22;61664;48.112;11.662;2023-03-14T07:28:46;11.50;81.50
31379;DHT22;61664;48.112;11.662;2023-03-14T07:31:13;11.50;82.00
31379;DHT22;61664;48.112;11.662;2023-03-14T07:33:40;11.60;82.10
31379;DHT22;61664;48.112;11.662;2023-03-14T07:36:07;11.60;82.30
31379;DHT22;61664;48.112;11.662;2023-03-14T07:38:35;11.70;82.30
31379;DHT22;61664;48.112;11.662;2023-03-14T07:41:04;11.70;82.30
31379;DHT22;61664;48.112;11.662;2023-03-14T07:43:33;11.70;82.00
31379;DHT22;61664;48.112;11.662;2023-03-14T07:46:00;11.70;82.50
31379;DHT22;61664;48.112;11.662;2023-03-14T07:48:28;11.80;82.50
31379;DHT22;61664;48.112;11.662;2023-03-14T07:50:56;11.80;82.50
31379;DHT22;61664;48.112;11.662;2023-03-14T07:53:24;11.90;82.50
31379;DHT22;61664;48.112;11.662;2023-03-14T07:55:52;12.00;82.50
31379;DHT22;61664;48.112;11.662;2023-03-14T07:58:20;12.10;82.30
31379;DHT22;61664;48.112;11.662;2023-03-14T08:00:51;12.20;81.80
31379;DHT22;61664;48.112;11.662;2023-03-14T08:03:19;12.20;80.60
31379;DHT22;61664;48.112;11.662;2023-03-14T08:05:50;12.30;80.70
31379;DHT22;61664;48.112;11.662;2023-03-14T08:08:18;12.30;76.80
31379;DHT22;61664;48.112;11.662;2023-03-14T08:10:45;12.40;78.80
31379;DHT22;61664;48.112;11.662;2023-03-14T08:13:13;12.40;78.70
31379;DHT22;61664;48.112;11.662;2023-03-14T08:15:40;12.40;78.70
31379;DHT22;61664;48.112;11.662;2023-03-14T08:18:07;12.50;79.10
31379;DHT22;61664;48.112;11.662;2023-03-14T08:20:36;12.50;79.10
31379;DHT22;61664;48.112;11.662;2023-03-14T08:23:04;12.50;79.10
31379;DHT22;61664;48.112;11.662;2023-03-14T08:25:31;12.60;79.70
31379;DHT22;61664;48.112;11.662;2023-03-14T08:27:58;12.60;78.90
31379;DHT22;61664;48.112;11.662;2023-03-14T08:30:25;12.70;78.20
31379;DHT22;61664;48.112;11.662;2023-03-14T08:32:52;12.70;78.60
31379;DHT22;61664;48.112;11.662;2023-03-14T08:35:19;12.70;78.40
31379;DHT22;61664;48.112;11.662;2023-03-14T08:37:46;12.70;77.60
31379;DHT22;61664;48.112;11.662;2023-03-14T08:40:13;12.80;77.70
31379;DHT22;61664;48.112;11.662;2023-03-14T08:42:40;12.80;77.70
31379;DHT22;61664;48.112;11.662;2023-03-14T08:45:10;12.80;77.30
31379;DHT22;61664;48.112;11.662;2023-03-14T08:47:38;12.90;77.30
31379;DHT22;61664;48.112;11.662;2023-03-14T08:50:06;12.90;76.80
31379;DHT22;61664;48.112;11.662;2023-03-14T08:52:37;12.90;77.30
31379;DHT22;61664;48.112;11.662;2023-03-14T08:55:08;12.90;76.10
31379;DHT22;61664;48.112;11.662;2023-03-14T08:57:35;13.00;76.10
31379;DHT22;61664;48.112;11.662;2023-03-14T09:00:05;13.00;76.90
31379;DHT22;61664;48.112;11.662;2023-03-14T09:02:37;13.00;76.10
31379;DHT22;61664;48.112;11.662;2023-03-14T09:05:05;13.00;76.90
31379;DHT22;61664;48.112;11.662;2023-03-14T09:07:32;13.10;76.20
31379;DHT22;61664;48.112;11.662;2023-03-14T09:09:59;13.10;77.10
31379;DHT22;61664;48.112;11.662;2023-03-14T09:12:26;13.10;77.10
31379;DHT22;61664;48.112;11.662;2023-03-14T09:14:53;13.20;77.30
31379;DHT22;61664;48.112;11.662;2023-03-14T09:17:20;13.20;77.50
31379;DHT22;61664;48.112;11.662;2023-03-14T09:19:47;13.20;77.10
31379;DHT22;61664;48.112;11.662;2023-03-14T09:22:14;13.30;76.40
31379;DHT22;61664;48.112;11.662;2023-03-14T09:24:41;13.30;76.80
31379;DHT22;61664;48.112;11.662;2023-03-14T09:27:08;13.30;76.90
31379;DHT22;61664;48.112;11.662;2023-03-14T09:29:35;13.40;76.70
31379;DHT22;61664;48.112;11.662;2023-03-14T09:32:02;13.30;76.40
31379;DHT22;61664;48.112;11.662;2023-03-14T09:34:30;13.40;76.40
31379;DHT22;61664;48.112;11.662;2023-03-14T09:36:56;13.40;76.30
31379;DHT22;61664;48.112;11.662;2023-03-14T09:39:23;13.40;76.20
31379;DHT22;61664;48.112;11.662;2023-03-14T09:41:51;13.40;75.60
31379;DHT22;61664;48.112;11.662;2023-03-14T09:47:05;13.40;73.70
31379;DHT22;61664;48.112;11.662;2023-03-14T09:49:41;13.30;75.50
31379;DHT22;61664;48.112;11.662;2023-03-14T09:52:15;13.40;75.90
31379;DHT22;61664;48.112;11.662;2023-03-14T09:54:56;13.30;74.00
31379;DHT22;61664;48.112;11.662;2023-03-14T09:57:28;13.40;72.90
31379;DHT22;61664;48.112;11.662;2023-03-14T10:00:00;13.40;75.80
31379;DHT22;61664;48.112;11.662;2023-03-14T10:02:38;13.40;76.30
31379;DHT22;61664;48.112;11.662;2023-03-14T10:05:15;13.40;77.60
31379;DHT22;61664;48.112;11.662;2023-03-14T10:07:44;13.50;74.80
31379;DHT22;61664;48.112;11.662;2023-03-14T10:10:17;13.50;77.80
31379;DHT22;61664;48.112;11.662;2023-03-14T10:12:54;13.60;76.20
31379;DHT22;61664;48.112;11.662;2023-03-14T10:15:30;13.70;77.00
31379;DHT22;61664;48.112;11.662;2023-03-14T10:18:01;13.70;73.80
31379;DHT22;61664;48.112;11.662;2023-03-14T10:26:00;13.80;67.00
31379;DHT22;61664;48.112;11.662;2023-03-14T10:28:45;13.90;74.50
31379;DHT22;61664;48.112;11.662;2023-03-14T10:31:15;14.00;72.60
31379;DHT22;61664;48.112;11.662;2023-03-14T10:33:42;14.10;76.10
31379;DHT22;61664;48.112;11.662;2023-03-14T10:36:31;14.20;75.80
31379;DHT22;61664;48.112;11.662;2023-03-14T10:44:55;14.90;64.60
31379;DHT22;61664;48.112;11.662;2023-03-14T10:47:25;15.30;73.30
31379;DHT22;61664;48.112;11.662;2023-03-14T10:49:55;15.50;75.80
31379;DHT22;61664;48.112;11.662;2023-03-14T10:52:27;15.70;74.00
31379;DHT22;61664;48.112;11.662;2023-03-14T10:55:12;15.90;76.20
31379;DHT22;61664;48.112;11.662;2023-03-14T10:57:40;16.20;74.10
31379;DHT22;61664;48.112;11.662;2023-03-14T11:00:18;16.30;72.50
31379;DHT22;61664;48.112;11.662;2023-03-14T11:08:45;16.30;64.70
31379;DHT22;61664;48.112;11.662;2023-03-14T11:11:23;16.10;57.10
31379;DHT22;61664;48.112;11.662;2023-03-14T11:17:02;15.80;60.80
31379;DHT22;61664;48.112;11.662;2023-03-14T11:19:43;15.70;65.80
31379;DHT22;61664;48.112;11.662;2023-03-14T11:28:29;15.50;58.70
31379;DHT22;61664;48.112;11.662;2023-03-14T11:37:11;15.50;58.60
31379;DHT22;61664;48.112;11.662;2023-03-14T11:40:04;15.60;61.10
31379;DHT22;61664;48.112;11.662;2023-03-14T11:42:43;15.70;62.70
31379;DHT22;61664;48.112;11.662;2023-03-14T11:45:20;15.80;69.40
31379;DHT22;61664;48.112;11.662;2023-03-14T11:48:10;15.90;63.50
31379;DHT22;61664;48.112;11.662;2023-03-14T11:50:43;16.00;58.30
31379;DHT22;61664;48.112;11.662;2023-03-14T11:56:25;16.00;63.30
31379;DHT22;61664;48.112;11.662;2023-03-14T11:59:02;16.00;55.40
31379;DHT22;61664;48.112;11.662;2023-03-14T12:02:05;16.00;59.40
31379;DHT22;61664;48.112;11.662;2023-03-14T12:04:54;16.00;48.90
31379;DHT22;61664;48.112;11.662;2023-03-14T12:07:41;15.90;52.90
31379;DHT22;61664;48.112;11.662;2023-03-14T12:10:24;15.90;52.40
31379;DHT22;61664;48.112;11.662;2023-03-14T12:12:51;16.00;62.40
31379;DHT22;61664;48.112;11.662;2023-03-14T12:15:21;16.00;62.10
31379;DHT22;61664;48.112;11.662;2023-03-14T12:17:55;16.10;61.00
31379;DHT22;61664;48.112;11.662;2023-03-14T12:20:26;16.10;54.10
31379;DHT22;61664;48.112;11.662;2023-03-14T12:22:55;16.10;57.70
31379;DHT22;61664;48.112;11.662;2023-03-14T12:25:30;16.10;59.80
31379;DHT22;61664;48.112;11.662;2023-03-14T12:35:49;16.10;54.70
31379;DHT22;61664;48.112;11.662;2023-03-14T12:41:19;15.90;53.20
31379;DHT22;61664;48.112;11.662;2023-03-14T12:43:51;15.80;56.40
31379;DHT22;61664;48.112;11.662;2023-03-14T12:46:22;15.70;56.60
31379;DHT22;61664;48.112;11.662;2023-03-14T12:51:40;15.70;53.30
31379;DHT22;61664;48.112;11.662;2023-03-14T12:56:57;15.60;51.00
31379;DHT22;61664;48.112;11.662;2023-03-14T12:59:47;15.60;57.00
31379;DHT22;61664;48.112;11.662;2023-03-14T13:02:29;15.70;57.60
31379;DHT22;61664;48.112;11.662;2023-03-14T13:05:18;15.80;52.50
31379;DHT22;61664;48.112;11.662;2023-03-14T13:10:25;16.00;58.10
31379;DHT22;61664;48.112;11.662;2023-03-14T13:15:46;16.00;48.80
31379;DHT22;61664;48.112;11.662;2023-03-14T13:21:18;15.90;54.50
31379;DHT22;61664;48.112;11.662;2023-03-14T13:23:56;15.90;58.10
31379;DHT22;61664;48.112;11.662;2023-03-14T13:26:39;15.90;50.20
31379;DHT22;61664;48.112;11.662;2023-03-14T13:29:16;16.00;52.80
31379;DHT22;61664;48.112;11.662;2023-03-14T13:32:01;16.10;53.50
31379;DHT22;61664;48.112;11.662;2023-03-14T13:34:42;16.20;57.20
31379;DHT22;61664;48.112;11.662;2023-03-14T13:37:16;16.10;54.90
31379;DHT22;61664;48.112;11.662;2023-03-14T13:39:52;16.10;50.50
31379;DHT22;61664;48.112;11.662;2023-03-14T13:42:26;15.90;50.20
31379;DHT22;61664;48.112;11.662;2023-03-14T13:44:56;15.80;51.10
31379;DHT22;61664;48.112;11.662;2023-03-14T13:47:25;15.60;54.10
31379;DHT22;61664;48.112;11.662;2023-03-14T13:49:53;15.40;53.70
31379;DHT22;61664;48.112;11.662;2023-03-14T13:52:22;15.20;54.50
31379;DHT22;61664;48.112;11.662;2023-03-14T13:55:04;15.10;54.60
31379;DHT22;61664;48.112;11.662;2023-03-14T14:00:25;14.60;51.60
31379;DHT22;61664;48.112;11.662;2023-03-14T14:02:55;14.40;52.40
31379;DHT22;61664;48.112;11.662;2023-03-14T14:05:27;14.30;57.60
31379;DHT22;61664;48.112;11.662;2023-03-14T14:07:56;14.20;58.50
31379;DHT22;61664;48.112;11.662;2023-03-14T14:10:25;14.10;58.70
31379;DHT22;61664;48.112;11.662;2023-03-14T14:13:03;13.90;58.60
31379;DHT22;61664;48.112;11.662;2023-03-14T14:15:37;13.70;58.50
31379;DHT22;61664;48.112;11.662;2023-03-14T14:18:16;13.50;60.30
31379;DHT22;61664;48.112;11.662;2023-03-14T14:20:46;13.40;61.10
31379;DHT22;61664;48.112;11.662;2023-03-14T14:23:17;13.20;62.00
31379;DHT22;61664;48.112;11.662;2023-03-14T14:25:52;13.00;62.30
31379;DHT22;61664;48.112;11.662;2023-03-14T14:28:30;12.70;63.50
31379;DHT22;61664;48.112;11.662;2023-03-14T14:31:22;12.50;63.90
31379;DHT22;61664;48.112;11.662;2023-03-14T14:33:57;12.30;64.90
31379;DHT22;61664;48.112;11.662;2023-03-14T14:36:39;12.00;64.30
31379;DHT22;61664;48.112;11.662;2023-03-14T14:41:53;11.50;66.50
31379;DHT22;61664;48.112;11.662;2023-03-14T14:44:34;11.30;68.40
31379;DHT22;61664;48.112;11.662;2023-03-14T14:47:03;11.00;69.00
31379;DHT22;61664;48.112;11.662;2023-03-14T14:49:33;10.80;70.60
31379;DHT22;61664;48.112;11.662;2023-03-14T14:52:15;10.60;70.60
31379;DHT22;61664;48.112;11.662;2023-03-14T14:54:57;10.50;70.00
31379;DHT22;61664;48.112;11.662;2023-03-14T14:57:27;10.40;71.50
31379;DHT22;61664;48.112;11.662;2023-03-14T15:00:03;10.20;72.30
31379;DHT22;61664;48.112;11.662;2023-03-14T15:02:41;10.10;73.10
31379;DHT22;61664;48.112;11.662;2023-03-14T15:05:22;10.00;73.80
31379;DHT22;61664;48.112;11.662;2023-03-14T15:07:51;10.00;74.20
31379;DHT22;61664;48.112;11.662;2023-03-14T15:10:21;9.90;74.30
31379;DHT22;61664;48.112;11.662;2023-03-14T15:12:50;9.90;74.10
31379;DHT22;61664;48.112;11.662;2023-03-14T15:15:18;9.80;74.20
31379;DHT22;61664;48.112;11.662;2023-03-14T15:17:45;9.80;74.90
31379;DHT22;61664;48.112;11.662;2023-03-14T15:20:14;9.70;75.10
31379;DHT22;61664;48.112;11.662;2023-03-14T15:22:43;9.70;76.10
31379;DHT22;61664;48.112;11.662;2023-03-14T15:25:11;9.70;76.00
31379;DHT22;61664;48.112;11.662;2023-03-14T15:27:58;9.80;75.90
31379;DHT22;61664;48.112;11.662;2023-03-14T15:30:25;9.70;76.10
31379;DHT22;61664;48.112;11.662;2023-03-14T15:32:52;9.70;76.10
31379;DHT22;61664;48.112;11.662;2023-03-14T15:35:19;9.80;76.10
31379;DHT22;61664;48.112;11.662;2023-03-14T15:37:46;9.80;76.00
31379;DHT22;61664;48.112;11.662;2023-03-14T15:40:13;9.80;76.10
31379;DHT22;61664;48.112;11.662;2023-03-14T15:42:41;9.80;75.90
31379;DHT22;61664;48.112;11.662;2023-03-14T15:45:09;9.90;75.40
31379;DHT22;61664;48.112;11.662;2023-03-14T15:47:36;9.80;75.40
31379;DHT22;61664;48.112;11.662;2023-03-14T15:50:04;9.80;75.70
31379;DHT22;61664;48.112;11.662;2023-03-14T15:52:31;9.80;76.10
31379;DHT22;61664;48.112;11.662;2023-03-14T15:54:58;9.70;76.40
31379;DHT22;61664;48.112;11.662;2023-03-14T15:57:25;9.70;76.60
31379;DHT22;61664;48.112;11.662;2023-03-14T15:59:52;9.60;76.90
31379;DHT22;61664;48.112;11.662;2023-03-14T16:02:19;9.70;76.20
31379;DHT22;61664;48.112;11.662;2023-03-14T16:04:46;9.50;75.50
31379;DHT22;61664;48.112;11.662;2023-03-14T16:07:13;9.40;74.70
31379;DHT22;61664;48.112;11.662;2023-03-14T16:09:39;9.40;74.00
31379;DHT22;61664;48.112;11.662;2023-03-14T16:12:07;9.10;74.00
31379;DHT22;61664;48.112;11.662;2023-03-14T16:14:35;9.00;74.50
31379;DHT22;61664;48.112;11.662;2023-03-14T16:17:02;8.90;75.30
31379;DHT22;61664;48.112;11.662;2023-03-14T16:19:29;8.80;76.20
31379;DHT22;61664;48.112;11.662;2023-03-14T16:21:57;8.70;77.00
31379;DHT22;61664;48.112;11.662;2023-03-14T16:24:24;8.70;78.10
31379;DHT22;61664;48.112;11.662;2023-03-14T16:26:51;8.60;78.90
31379;DHT22;61664;48.112;11.662;2023-03-14T16:29:18;8.60;80.00
31379;DHT22;61664;48.112;11.662;2023-03-14T16:31:45;8.60;80.70
31379;DHT22;61664;48.112;11.662;2023-03-14T16:34:32;8.60;81.50
31379;DHT22;61664;48.112;11.662;2023-03-14T16:36:59;8.60;82.00
31379;DHT22;61664;48.112;11.662;2023-03-14T16:39:26;8.60;81.80
31379;DHT22;61664;48.112;11.662;2023-03-14T16:41:54;8.70;82.30
31379;DHT22;61664;48.112;11.662;2023-03-14T16:44:24;8.80;82.30
31379;DHT22;61664;48.112;11.662;2023-03-14T16:46:52;8.80;81.70
31379;DHT22;61664;48.112;11.662;2023-03-14T16:49:18;8.80;81.60